الصفحة الرئيسية
METAR-TAF:

METAR-TAF

مطار :

Sirri, إيران

دائرة عرض: 25-54-34N, خط طول: 054-32-22E, ارتفاع: 13 متر

مراقبة الطقس الحالي

تاريخ ووقت الإصدار 6ساعات و 15 دقيقة قبل الساعة 15:00UTC
ريح 6 عقدة من الغرب
درجة الحرارة 36°درجة مئوية
الرطوبة 67%
ضغط 993 hPa
الرؤية: 4000 متر
العجاج,

METAR: OIBS 251500Z 26006KT 4000 HZ NSC 36/29 Q0993

زمن: 01:45 (21:15 UTC)


TAF: مفقودة

أرصاد الطقس والتوقعات من أكثر من 4000 مطار (تقارير الطقس للمطار METAR والتنبؤ بالطقس بالمطارTAF).

المحطات المتاحة هي النقط الصفراء والحمراء على الخريطة.

حرك المؤشر فوق النقطة لمعرفة اسم المحطة.

ثم انقر لمعرفة أرصاد وتوقعات الطقس.

لتغيير الخارطة: اضغط على الأزرار الخضراء مع رمز الصليب الأسود للتكبير. على الزر الأخضر مع شرطة للتصغير، أو على الأسهم الخضراء للخرائط المجاورة.


METAR-TAF: